Time;durP1;ratioP1;P1;durP2;ratioP2;P2;SDS_P1;SDS_P2;PMS_P1;PMS_P2;Temp;Humidity;BMP_temperature;BMP_pressure;BME280_temperature;BME280_humidity;BME280_pressure;Samples;Min_cycle;Max_cycle;Signal;HPM_P1;HPM_P2
2021/06/30 00:00:40;;;;;;;1.63;1.53;;;;;25.10;99965.00;;;;2058711;28;20242;-74
2021/06/30 00:01:40;;;;;;;1.80;1.70;;;;;25.10;99958.00;;;;2063215;28;20226;-74
2021/06/30 00:02:40;;;;;;;2.10;1.87;;;;;25.10;99949.00;;;;2058927;28;20226;-74
2021/06/30 00:03:41;;;;;;;1.97;1.87;;;;;25.10;99950.00;;;;2050633;28;20275;-74
2021/06/30 00:04:41;;;;;;;1.80;1.70;;;;;25.10;99945.00;;;;2042222;28;20251;-74
2021/06/30 00:05:42;;;;;;;1.50;1.40;;;;;25.10;99941.00;;;;2058781;28;20680;-74
2021/06/30 00:06:42;;;;;;;2.07;1.63;;;;;25.10;99934.00;;;;2060543;28;20215;-74
2021/06/30 00:07:42;;;;;;;2.07;1.60;;;;;25.10;99935.00;;;;2060514;28;20219;-74
2021/06/30 00:08:43;;;;;;;1.87;1.77;;;;;25.10;99930.00;;;;2060463;28;20245;-74
2021/06/30 00:09:43;;;;;;;2.10;1.90;;;;;25.10;99927.00;;;;2060373;28;20223;-74
2021/06/30 00:10:43;;;;;;;1.60;1.50;;;;;25.10;99919.00;;;;2059508;28;20231;-74
2021/06/30 00:11:44;;;;;;;1.90;1.77;;;;;25.10;99921.00;;;;2059404;28;20270;-74
2021/06/30 00:12:44;;;;;;;2.30;1.60;;;;;25.10;99923.00;;;;2060226;28;20686;-74
2021/06/30 00:13:46;;;;;;;1.80;1.70;;;;;25.10;99927.00;;;;2052465;28;20231;-74
2021/06/30 00:14:46;;;;;;;1.63;1.52;;;;;25.10;99929.00;;;;2060270;28;20226;-73
2021/06/30 00:15:47;;;;;;;2.00;1.83;;;;;25.10;99927.00;;;;2061117;28;20329;-73
2021/06/30 00:16:48;;;;;;;2.03;1.87;;;;;25.10;99941.00;;;;2060534;28;20227;-73
2021/06/30 00:17:48;;;;;;;2.13;1.57;;;;;25.10;99938.00;;;;2059586;28;20226;-74
2021/06/30 00:18:48;;;;;;;1.87;1.77;;;;;25.10;99951.00;;;;2057952;28;20707;-74
2021/06/30 00:19:49;;;;;;;1.80;1.70;;;;;25.10;99943.00;;;;2060268;28;20215;-74
2021/06/30 00:20:50;;;;;;;1.73;1.63;;;;;25.10;99950.00;;;;2060429;28;20223;-74
2021/06/30 00:21:51;;;;;;;1.88;1.73;;;;;25.10;99946.00;;;;2060440;28;20590;-74
2021/06/30 00:22:51;;;;;;;1.97;1.80;;;;;25.10;99946.00;;;;2060440;28;20212;-74
2021/06/30 00:23:52;;;;;;;1.73;1.63;;;;;25.10;99943.00;;;;2061104;28;20246;-74
2021/06/30 00:24:52;;;;;;;1.70;1.57;;;;;25.10;99945.00;;;;2060069;28;21043;-74
2021/06/30 00:25:52;;;;;;;2.13;1.97;;;;;25.10;99939.00;;;;2057617;28;20223;-72
2021/06/30 00:26:53;;;;;;;1.83;1.73;;;;;25.10;99943.00;;;;2060084;28;20218;-73
2021/06/30 00:27:54;;;;;;;1.83;1.73;;;;;25.10;99950.00;;;;2060210;28;20250;-74
2021/06/30 00:28:54;;;;;;;1.67;1.58;;;;;25.10;99946.00;;;;2060073;28;20647;-74
2021/06/30 00:29:54;;;;;;;1.60;1.50;;;;;25.10;99947.00;;;;2066092;28;20203;-74
2021/06/30 00:30:55;;;;;;;1.90;1.70;;;;;25.10;99945.00;;;;2062997;28;20242;-74
2021/06/30 00:31:55;;;;;;;1.67;1.57;;;;;25.10;99943.00;;;;2062145;28;20290;-74
2021/06/30 00:32:56;;;;;;;1.70;1.60;;;;;25.10;99932.00;;;;2058427;28;20768;-74
2021/06/30 00:34:02;;;;;;;2.10;1.90;;;;;25.10;99936.00;;;;2060082;28;20299;-74
2021/06/30 00:35:03;;;;;;;1.52;1.42;;;;;25.10;99928.00;;;;2060650;28;20300;-74
2021/06/30 00:36:04;;;;;;;1.60;1.50;;;;;25.10;99920.00;;;;2068472;28;20267;-74
2021/06/30 00:37:04;;;;;;;1.93;1.83;;;;;25.10;99915.00;;;;2067809;28;20625;-74
2021/06/30 00:38:05;;;;;;;1.53;1.43;;;;;25.10;99919.00;;;;2060227;28;20214;-74
2021/06/30 00:39:05;;;;;;;1.73;1.63;;;;;25.10;99919.00;;;;2060136;28;20235;-74
2021/06/30 00:40:06;;;;;;;1.67;1.57;;;;;25.10;99914.00;;;;2059542;28;20267;-74
2021/06/30 00:41:06;;;;;;;1.73;1.63;;;;;25.10;99910.00;;;;2051629;28;20703;-74
2021/06/30 00:42:07;;;;;;;1.77;1.67;;;;;25.10;99913.00;;;;2042458;28;21012;-74
2021/06/30 00:43:07;;;;;;;1.43;1.33;;;;;25.10;99919.00;;;;2056830;28;20212;-74
2021/06/30 00:44:07;;;;;;;1.53;1.43;;;;;25.10;99922.00;;;;2066180;28;20206;-74
2021/06/30 00:45:09;;;;;;;1.77;1.30;;;;;25.10;99914.00;;;;2061033;28;20214;-74
2021/06/30 00:46:09;;;;;;;2.10;1.50;;;;;25.10;99919.00;;;;2058576;28;20740;-74
2021/06/30 00:47:09;;;;;;;1.73;1.60;;;;;25.10;99920.00;;;;2059576;28;20249;-73
2021/06/30 00:48:10;;;;;;;1.47;1.37;;;;;25.10;99922.00;;;;2060026;28;20218;-74
2021/06/30 00:49:11;;;;;;;1.48;1.38;;;;;25.10;99924.00;;;;2059984;28;20223;-74
2021/06/30 00:50:15;;;;;;;1.90;1.80;;;;;25.10;99924.00;;;;2059357;28;20215;-73
2021/06/30 00:51:16;;;;;;;1.50;1.40;;;;;25.10;99930.00;;;;2059433;28;20219;-74
2021/06/30 00:52:16;;;;;;;1.63;1.53;;;;;25.10;99931.00;;;;2060024;28;20246;-74
2021/06/30 00:53:16;;;;;;;1.40;1.30;;;;;25.10;99933.00;;;;2060204;28;20208;-74
2021/06/30 00:54:17;;;;;;;1.53;1.43;;;;;25.10;99919.00;;;;2060922;28;20219;-74
2021/06/30 00:55:18;;;;;;;1.70;1.60;;;;;25.10;99920.00;;;;2060862;28;20211;-74
2021/06/30 00:56:24;;;;;;;1.87;1.77;;;;;25.10;99919.00;;;;2063757;28;20223;-74
2021/06/30 00:57:24;;;;;;;1.63;1.52;;;;;25.10;99921.00;;;;2044555;28;20236;-73
2021/06/30 00:58:25;;;;;;;2.07;1.87;;;;;25.10;99925.00;;;;2045609;28;20610;-73
2021/06/30 00:59:25;;;;;;;1.60;1.50;;;;;25.10;99920.00;;;;2053601;28;20645;-73
2021/06/30 01:00:26;;;;;;;1.63;1.53;;;;;25.10;99924.00;;;;2060301;28;20214;-74
2021/06/30 01:01:26;;;;;;;1.50;1.37;;;;;25.10;99933.00;;;;2062948;28;20199;-73
2021/06/30 01:02:27;;;;;;;1.83;1.73;;;;;25.10;99934.00;;;;2044076;28;20237;-73
2021/06/30 01:03:28;;;;;;;1.40;1.30;;;;;25.10;99931.00;;;;2050824;28;20251;-74
2021/06/30 01:04:28;;;;;;;1.63;1.50;;;;;25.10;99939.00;;;;2060727;28;20712;-73
2021/06/30 01:05:29;;;;;;;1.70;1.60;;;;;25.10;99928.00;;;;2060380;28;20218;-74
2021/06/30 01:06:29;;;;;;;3.53;1.50;;;;;25.10;99923.00;;;;2059942;28;20242;-74
2021/06/30 01:07:29;;;;;;;1.60;1.50;;;;;25.10;99921.00;;;;2059333;28;20210;-74
2021/06/30 01:08:30;;;;;;;2.00;1.80;;;;;25.10;99926.00;;;;2059279;28;20212;-74
2021/06/30 01:09:31;;;;;;;1.90;1.80;;;;;25.10;99917.00;;;;2051309;28;20224;-73
2021/06/30 01:10:31;;;;;;;1.90;1.80;;;;;25.10;99921.00;;;;2036058;28;20300;-74
2021/06/30 01:11:31;;;;;;;1.90;1.80;;;;;25.10;99926.00;;;;2051890;28;20460;-74
2021/06/30 01:12:32;;;;;;;1.73;1.47;;;;;25.10;99919.00;;;;2051952;28;20702;-74
2021/06/30 01:13:32;;;;;;;1.73;1.63;;;;;25.10;99912.00;;;;2059832;28;20245;-73
2021/06/30 01:14:33;;;;;;;1.63;1.53;;;;;25.10;99915.00;;;;2059938;28;20211;-74
2021/06/30 01:15:47;;;;;;;1.77;1.55;;;;;25.10;99918.00;;;;2059855;28;20207;-74
2021/06/30 01:16:47;;;;;;;1.60;1.48;;;;;25.10;99915.00;;;;2067668;28;20284;-73
2021/06/30 01:17:50;;;;;;;1.43;1.33;;;;;25.10;99930.00;;;;2062068;28;20314;-74
2021/06/30 01:18:51;;;;;;;1.70;1.60;;;;;25.10;99924.00;;;;2060577;28;20217;-74
2021/06/30 01:19:51;;;;;;;1.80;1.70;;;;;25.10;99928.00;;;;2060574;28;20211;-74
2021/06/30 01:20:52;;;;;;;1.30;1.20;;;;;25.10;99935.00;;;;2059739;28;20242;-74
2021/06/30 01:21:52;;;;;;;1.50;1.40;;;;;25.10;99937.00;;;;2059209;28;20207;-74
2021/06/30 01:23:03;;;;;;;1.90;1.80;;;;;25.10;99932.00;;;;2050798;28;20250;-74
2021/06/30 01:24:04;;;;;;;1.55;1.45;;;;;25.10;99930.00;;;;2059164;28;20207;-74
2021/06/30 01:25:05;;;;;;;1.60;1.50;;;;;25.10;99935.00;;;;2059726;28;20733;-73
2021/06/30 01:26:05;;;;;;;1.80;1.70;;;;;25.10;99930.00;;;;2058519;28;20235;-74
2021/06/30 01:27:06;;;;;;;1.60;1.50;;;;;25.10;99930.00;;;;2059983;28;20454;-74
2021/06/30 01:28:06;;;;;;;1.50;1.40;;;;;25.10;99931.00;;;;2060842;28;20290;-74
2021/06/30 01:29:07;;;;;;;1.67;1.57;;;;;25.10;99923.00;;;;2063890;28;20274;-74
2021/06/30 01:30:07;;;;;;;1.80;1.70;;;;;25.10;99932.00;;;;2064593;28;20744;-74
2021/06/30 01:31:08;;;;;;;1.83;1.73;;;;;25.10;99931.00;;;;2062743;28;20748;-74
2021/06/30 01:32:08;;;;;;;1.70;1.60;;;;;25.10;99941.00;;;;2059629;28;20207;-73
2021/06/30 01:33:09;;;;;;;1.67;1.57;;;;;25.10;99932.00;;;;2059966;28;20226;-74
2021/06/30 01:34:12;;;;;;;1.50;1.40;;;;;25.10;99928.00;;;;2060523;28;20230;-74
2021/06/30 01:35:20;;;;;;;1.67;1.52;;;;;25.10;99923.00;;;;2059659;28;20207;-74
2021/06/30 01:36:20;;;;;;;1.40;1.27;;;;;25.10;99917.00;;;;2044083;28;20275;-74
2021/06/30 01:37:21;;;;;;;1.80;1.70;;;;;25.10;99929.00;;;;2051210;28;20716;-73
2021/06/30 01:38:25;;;;;;;1.70;1.60;;;;;25.10;99912.00;;;;2059758;28;20596;-73
2021/06/30 01:39:25;;;;;;;1.75;1.65;;;;;25.10;99924.00;;;;2060367;28;20350;-74
2021/06/30 01:40:26;;;;;;;2.50;1.73;;;;;25.10;99913.00;;;;2059771;28;20211;-74
2021/06/30 01:41:26;;;;;;;1.90;1.80;;;;;25.10;99906.00;;;;2051935;28;20223;-74
2021/06/30 01:42:27;;;;;;;1.87;1.77;;;;;25.10;99906.00;;;;2058606;28;20784;-74
2021/06/30 01:43:27;;;;;;;1.70;1.60;;;;;25.10;99907.00;;;;2059733;28;20696;-74
2021/06/30 01:44:27;;;;;;;1.83;1.73;;;;;25.10;99909.00;;;;2059656;28;20685;-74
2021/06/30 01:45:28;;;;;;;1.50;1.40;;;;;25.10;99908.00;;;;2059788;28;20211;-74
2021/06/30 01:46:29;;;;;;;1.70;1.60;;;;;25.10;99913.00;;;;2059862;28;20223;-74
2021/06/30 01:47:29;;;;;;;1.77;1.67;;;;;25.10;99915.00;;;;2060480;28;20215;-74
2021/06/30 01:48:29;;;;;;;1.40;1.30;;;;;25.10;99922.00;;;;2059758;28;20230;-74
2021/06/30 01:49:30;;;;;;;1.47;1.37;;;;;25.00;99911.00;;;;2059603;28;20215;-74
2021/06/30 01:50:30;;;;;;;1.60;1.50;;;;;25.10;99912.00;;;;2060090;28;20241;-74
2021/06/30 01:51:31;;;;;;;1.73;1.63;;;;;25.10;99910.00;;;;2059024;28;20225;-74
2021/06/30 01:52:31;;;;;;;1.53;1.43;;;;;25.10;99911.00;;;;2050432;28;20327;-74
2021/06/30 01:53:31;;;;;;;1.60;1.50;;;;;25.10;99915.00;;;;2042706;28;20294;-73
2021/06/30 01:54:32;;;;;;;1.90;1.70;;;;;25.00;99910.00;;;;2050965;28;20762;-74
2021/06/30 01:55:33;;;;;;;1.37;1.27;;;;;25.00;99912.00;;;;2059236;28;20604;-70
2021/06/30 01:56:33;;;;;;;1.73;1.63;;;;;25.10;99908.00;;;;2059681;28;20223;-73
2021/06/30 01:57:41;;;;;;;1.53;1.43;;;;;25.00;99907.00;;;;2051646;28;20601;-73
2021/06/30 01:58:41;;;;;;;1.48;1.38;;;;;25.00;99916.00;;;;2059223;28;20253;-74
2021/06/30 01:59:41;;;;;;;1.90;1.80;;;;;25.00;99917.00;;;;2059137;28;20214;-74
2021/06/30 02:00:42;;;;;;;1.67;1.57;;;;;25.00;99913.00;;;;2063731;28;20272;-74
2021/06/30 02:01:42;;;;;;;1.80;1.70;;;;;25.00;99915.00;;;;2064585;28;20222;-74
2021/06/30 02:02:42;;;;;;;1.80;1.70;;;;;25.00;99919.00;;;;2051000;28;20990;-74
2021/06/30 02:03:43;;;;;;;1.67;1.57;;;;;25.10;99922.00;;;;2058393;28;20309;-74
2021/06/30 02:04:43;;;;;;;1.97;1.50;;;;;25.10;99920.00;;;;2058570;28;20250;-74
2021/06/30 02:05:43;;;;;;;1.77;1.67;;;;;25.00;99914.00;;;;2058195;28;20228;-74
2021/06/30 02:06:44;;;;;;;1.40;1.30;;;;;25.00;99915.00;;;;2058514;28;20234;-74
2021/06/30 02:07:45;;;;;;;1.70;1.60;;;;;25.00;99918.00;;;;2059176;28;20224;-74
2021/06/30 02:08:46;;;;;;;1.88;1.70;;;;;25.00;99920.00;;;;2051119;28;20215;-74
2021/06/30 02:09:46;;;;;;;1.70;1.60;;;;;25.00;99917.00;;;;2058835;28;20220;-74
2021/06/30 02:10:46;;;;;;;1.33;1.23;;;;;25.00;99916.00;;;;2059484;28;20234;-74
2021/06/30 02:11:47;;;;;;;1.80;1.70;;;;;25.00;99918.00;;;;2059077;28;20214;-74
2021/06/30 02:12:47;;;;;;;1.50;1.40;;;;;25.00;99914.00;;;;2058201;28;20293;-74
2021/06/30 02:13:48;;;;;;;1.40;1.30;;;;;25.10;99910.00;;;;2050222;28;20211;-74
2021/06/30 02:14:48;;;;;;;1.67;1.57;;;;;25.10;99911.00;;;;2050443;28;20271;-74
2021/06/30 02:15:48;;;;;;;2.27;1.80;;;;;25.00;99908.00;;;;2059585;28;20290;-74
2021/06/30 02:16:49;;;;;;;1.50;1.40;;;;;25.00;99910.00;;;;2059939;28;20224;-74
2021/06/30 02:17:49;;;;;;;1.70;1.60;;;;;25.00;99901.00;;;;2058843;28;20212;-74
2021/06/30 02:18:49;;;;;;;1.67;1.57;;;;;25.00;99896.00;;;;2050721;28;20231;-74
2021/06/30 02:19:50;;;;;;;1.67;1.57;;;;;25.00;99907.00;;;;2059471;28;20215;-74
2021/06/30 02:20:50;;;;;;;1.60;1.50;;;;;25.00;99898.00;;;;2058559;28;20210;-73
2021/06/30 02:21:51;;;;;;;1.63;1.53;;;;;25.00;99906.00;;;;2058880;28;20266;-74
2021/06/30 02:22:51;;;;;;;1.80;1.70;;;;;25.00;99880.00;;;;2057963;28;20270;-74
2021/06/30 02:23:51;;;;;;;1.70;1.60;;;;;25.00;99904.00;;;;2059324;28;20222;-74
2021/06/30 02:24:55;;;;;;;2.03;1.93;;;;;25.00;99904.00;;;;2058713;28;20211;-74
2021/06/30 02:25:56;;;;;;;1.65;1.55;;;;;25.00;99905.00;;;;2058711;28;20222;-74
2021/06/30 02:26:56;;;;;;;1.87;1.77;;;;;25.00;99904.00;;;;2058637;28;20678;-74
2021/06/30 02:27:56;;;;;;;1.60;1.50;;;;;25.00;99906.00;;;;2059201;28;20234;-74
2021/06/30 02:28:57;;;;;;;1.80;1.70;;;;;25.00;99903.00;;;;2062085;28;21757;-74
2021/06/30 02:29:57;;;;;;;1.80;1.70;;;;;25.00;99911.00;;;;2064039;28;20628;-74
2021/06/30 02:30:58;;;;;;;1.53;1.43;;;;;25.00;99902.00;;;;2061781;28;20313;-74
2021/06/30 02:31:58;;;;;;;1.70;1.60;;;;;25.00;99916.00;;;;2052229;28;20235;-74
2021/06/30 02:33:01;;;;;;;1.63;1.53;;;;;25.00;99908.00;;;;2059233;28;20255;-74
2021/06/30 02:34:01;;;;;;;1.92;1.40;;;;;25.00;99908.00;;;;2059231;28;20215;-73
2021/06/30 02:35:06;;;;;;;1.40;1.30;;;;;25.00;99907.00;;;;2051705;28;20290;-74
2021/06/30 02:36:07;;;;;;;1.70;1.60;;;;;25.00;99891.00;;;;2051512;28;20212;-74
2021/06/30 02:37:07;;;;;;;1.50;1.40;;;;;25.00;99906.00;;;;2058732;28;20218;-74
2021/06/30 02:38:08;;;;;;;1.83;1.73;;;;;25.00;99903.00;;;;2058438;28;20215;-74
2021/06/30 02:39:08;;;;;;;1.73;1.63;;;;;25.00;99906.00;;;;2058628;28;20330;-74
2021/06/30 02:40:10;;;;;;;1.57;1.47;;;;;25.00;99909.00;;;;2059288;28;20223;-74
2021/06/30 02:41:11;;;;;;;1.70;1.60;;;;;25.00;99916.00;;;;2058935;28;20798;-73
2021/06/30 02:42:11;;;;;;;1.70;1.60;;;;;25.00;99896.00;;;;2042984;28;20213;-73
2021/06/30 02:43:11;;;;;;;1.90;1.77;;;;;25.00;99906.00;;;;2051385;28;20682;-73
2021/06/30 02:44:12;;;;;;;1.70;1.60;;;;;25.00;99908.00;;;;2059750;28;20773;-74
2021/06/30 02:45:14;;;;;;;1.67;1.47;;;;;25.00;99909.00;;;;2059228;28;20582;-73
2021/06/30 02:46:14;;;;;;;1.85;1.75;;;;;25.00;99909.00;;;;2058643;28;20225;-73
2021/06/30 02:47:14;;;;;;;1.60;1.50;;;;;25.00;99907.00;;;;2058635;28;20735;-73
2021/06/30 02:48:15;;;;;;;1.93;1.83;;;;;25.00;99907.00;;;;2058713;28;20730;-73
2021/06/30 02:49:15;;;;;;;2.13;2.03;;;;;25.00;99890.00;;;;2059333;28;20714;-74
2021/06/30 02:50:18;;;;;;;1.70;1.60;;;;;25.00;99905.00;;;;2059016;28;20297;-73
2021/06/30 02:51:18;;;;;;;1.48;1.38;;;;;25.00;99884.00;;;;2043533;28;20280;-73
2021/06/30 02:52:19;;;;;;;1.60;1.50;;;;;25.00;99895.00;;;;2043179;28;20228;-73
2021/06/30 02:53:19;;;;;;;2.13;1.83;;;;;25.00;99897.00;;;;2042575;28;20678;-74
2021/06/30 02:54:19;;;;;;;1.83;1.73;;;;;25.00;99896.00;;;;2050417;28;20300;-74
2021/06/30 02:55:20;;;;;;;1.60;1.50;;;;;25.00;99887.00;;;;2059010;28;20223;-74
2021/06/30 02:56:21;;;;;;;1.90;1.70;;;;;25.00;99895.00;;;;2058496;28;20219;-74
2021/06/30 02:57:21;;;;;;;1.90;1.80;;;;;25.00;99899.00;;;;2058363;28;20211;-74
2021/06/30 02:58:22;;;;;;;1.63;1.53;;;;;25.00;99892.00;;;;2059068;28;20253;-74
2021/06/30 02:59:22;;;;;;;1.93;1.70;;;;;25.00;99902.00;;;;2059651;28;20255;-74
2021/06/30 03:00:26;;;;;;;2.00;1.90;;;;;25.00;99894.00;;;;2062144;28;20236;-74
2021/06/30 03:01:27;;;;;;;1.77;1.67;;;;;25.00;99901.00;;;;2062072;28;20202;-74
2021/06/30 03:02:27;;;;;;;1.83;1.73;;;;;24.90;99909.00;;;;2051497;28;20212;-74
2021/06/30 03:03:27;;;;;;;1.83;1.73;;;;;25.00;99905.00;;;;2051133;28;20219;-74
2021/06/30 03:04:28;;;;;;;1.97;1.87;;;;;25.00;99921.00;;;;2059365;28;20226;-73
2021/06/30 03:05:28;;;;;;;2.00;1.90;;;;;25.00;99924.00;;;;2059145;28;20728;-74
2021/06/30 03:06:29;;;;;;;2.13;2.00;;;;;25.00;99912.00;;;;2059212;28;20606;-74
2021/06/30 03:07:29;;;;;;;1.63;1.53;;;;;25.00;99914.00;;;;2058740;28;20219;-74
2021/06/30 03:08:29;;;;;;;1.77;1.67;;;;;25.00;99915.00;;;;2059196;28;20219;-74
2021/06/30 03:09:30;;;;;;;1.80;1.70;;;;;25.00;99925.00;;;;2059763;28;20212;-73
2021/06/30 03:10:30;;;;;;;1.90;1.80;;;;;25.00;99922.00;;;;2059632;28;20222;-74
2021/06/30 03:11:30;;;;;;;1.90;1.80;;;;;25.00;99927.00;;;;2059962;28;20706;-74
2021/06/30 03:12:31;;;;;;;1.70;1.60;;;;;25.00;99926.00;;;;2059788;28;20603;-74
2021/06/30 03:13:31;;;;;;;2.37;2.20;;;;;25.00;99928.00;;;;2059475;28;20593;-74
2021/06/30 03:14:31;;;;;;;1.70;1.60;;;;;25.00;99925.00;;;;2059102;28;20207;-73
2021/06/30 03:15:32;;;;;;;1.80;1.70;;;;;25.00;99930.00;;;;2062706;28;20279;-74
2021/06/30 03:16:32;;;;;;;2.00;1.47;;;;;25.00;99928.00;;;;2054675;28;20586;-74
2021/06/30 03:17:34;;;;;;;1.60;1.50;;;;;25.00;99931.00;;;;2050512;28;20231;-73
2021/06/30 03:18:35;;;;;;;2.00;1.90;;;;;25.00;99932.00;;;;2050124;28;20279;-74
2021/06/30 03:19:35;;;;;;;1.77;1.67;;;;;25.00;99933.00;;;;2058346;28;20297;-73
2021/06/30 03:20:35;;;;;;;1.60;1.50;;;;;25.00;99934.00;;;;2058766;28;20223;-74
2021/06/30 03:21:36;;;;;;;2.00;1.90;;;;;25.00;99929.00;;;;2050397;28;20232;-73
2021/06/30 03:22:38;;;;;;;1.70;1.60;;;;;25.00;99933.00;;;;2050423;28;20592;-73
2021/06/30 03:23:38;;;;;;;1.70;1.60;;;;;25.00;99932.00;;;;2059137;28;20227;-74
2021/06/30 03:24:38;;;;;;;1.50;1.40;;;;;25.00;99932.00;;;;2059056;28;20955;-74
2021/06/30 03:25:39;;;;;;;2.00;1.90;;;;;25.00;99932.00;;;;2059004;28;20222;-74
2021/06/30 03:26:39;;;;;;;1.87;1.77;;;;;25.00;99935.00;;;;2059285;28;20211;-74
2021/06/30 03:27:40;;;;;;;1.83;1.73;;;;;25.00;99928.00;;;;2059056;28;20293;-74
2021/06/30 03:28:41;;;;;;;1.90;1.80;;;;;25.00;99927.00;;;;2059170;28;20218;-74
2021/06/30 03:29:41;;;;;;;2.20;1.80;;;;;25.00;99930.00;;;;2063286;28;20219;-74
2021/06/30 03:30:43;;;;;;;1.70;1.60;;;;;25.00;99926.00;;;;2060807;28;20221;-74
2021/06/30 03:31:44;;;;;;;1.80;1.70;;;;;25.00;99923.00;;;;2059280;28;20261;-74
2021/06/30 03:32:44;;;;;;;1.73;1.63;;;;;25.00;99923.00;;;;2058636;28;20596;-74
2021/06/30 03:33:44;;;;;;;1.70;1.60;;;;;25.00;99924.00;;;;2059080;28;20215;-74
2021/06/30 03:34:45;;;;;;;1.83;1.73;;;;;25.00;99924.00;;;;2059488;28;20215;-74
2021/06/30 03:35:45;;;;;;;1.60;1.50;;;;;25.00;99921.00;;;;2059163;28;20226;-74
2021/06/30 03:36:45;;;;;;;1.90;1.80;;;;;25.00;99927.00;;;;2050960;28;20232;-74
2021/06/30 03:37:45;;;;;;;1.97;1.87;;;;;25.00;99921.00;;;;2059082;28;20262;-74
2021/06/30 03:38:46;;;;;;;2.10;2.00;;;;;25.00;99916.00;;;;2057962;28;20304;-73
2021/06/30 03:39:46;;;;;;;1.80;1.70;;;;;25.00;99916.00;;;;2056792;28;20218;-74
2021/06/30 03:40:47;;;;;;;1.60;1.50;;;;;25.00;99922.00;;;;2059385;28;20218;-74
2021/06/30 03:41:47;;;;;;;1.70;1.60;;;;;25.00;99908.00;;;;2059393;28;20261;-74
2021/06/30 03:42:47;;;;;;;2.00;1.90;;;;;25.00;99911.00;;;;2060040;28;20317;-74
2021/06/30 03:43:48;;;;;;;2.20;2.00;;;;;25.00;99912.00;;;;2060823;28;20223;-74
2021/06/30 03:44:48;;;;;;;1.90;1.80;;;;;25.00;99915.00;;;;2060793;28;20593;-74
2021/06/30 03:45:48;;;;;;;1.90;1.80;;;;;25.00;99914.00;;;;2060331;28;20679;-74
2021/06/30 03:46:50;;;;;;;1.53;1.43;;;;;25.00;99912.00;;;;2052119;28;20283;-74
2021/06/30 03:47:50;;;;;;;1.67;1.58;;;;;25.00;99908.00;;;;2059869;28;20269;-73
2021/06/30 03:48:50;;;;;;;1.70;1.60;;;;;25.00;99915.00;;;;2059792;28;20222;-73
2021/06/30 03:49:51;;;;;;;1.83;1.73;;;;;25.00;99915.00;;;;2059520;28;20281;-73
2021/06/30 03:50:51;;;;;;;1.70;1.60;;;;;25.00;99907.00;;;;2059531;28;20215;-73
2021/06/30 03:51:52;;;;;;;1.70;1.60;;;;;25.00;99912.00;;;;2060307;28;20216;-73
2021/06/30 03:52:52;;;;;;;1.60;1.50;;;;;25.00;99917.00;;;;2061165;28;20215;-73
2021/06/30 03:53:52;;;;;;;2.00;1.90;;;;;25.00;99916.00;;;;2061271;28;20237;-74
2021/06/30 03:54:55;;;;;;;1.70;1.60;;;;;25.00;99912.00;;;;2064162;28;20211;-73
2021/06/30 03:55:56;;;;;;;2.00;1.90;;;;;25.00;99920.00;;;;2064036;28;20214;-73
2021/06/30 03:56:56;;;;;;;1.67;1.57;;;;;25.00;99918.00;;;;2060615;28;20832;-73
2021/06/30 03:57:56;;;;;;;1.77;1.67;;;;;25.00;99915.00;;;;2058609;28;20314;-73
2021/06/30 03:58:58;;;;;;;1.83;1.73;;;;;25.00;99914.00;;;;2059724;28;20262;-74
2021/06/30 03:59:58;;;;;;;2.05;1.95;;;;;25.00;99905.00;;;;2061177;28;20215;-74
2021/06/30 04:00:59;;;;;;;1.63;1.53;;;;;25.00;99910.00;;;;2066554;28;20705;-73
2021/06/30 04:01:59;;;;;;;1.90;1.80;;;;;25.00;99917.00;;;;2064390;28;20742;-74
2021/06/30 04:02:59;;;;;;;1.70;1.60;;;;;25.00;99914.00;;;;2059768;28;20699;-74
2021/06/30 04:04:01;;;;;;;2.00;1.70;;;;;25.00;99906.00;;;;2060475;28;20626;-74
2021/06/30 04:05:01;;;;;;;1.88;1.77;;;;;25.00;99915.00;;;;2061121;28;20219;-74
2021/06/30 04:06:01;;;;;;;1.80;1.70;;;;;25.00;99914.00;;;;2061281;28;20247;-74
2021/06/30 04:07:02;;;;;;;2.10;2.00;;;;;25.00;99920.00;;;;2059529;28;20211;-74
2021/06/30 04:08:09;;;;;;;1.70;1.60;;;;;25.00;99916.00;;;;2061167;28;20215;-73
2021/06/30 04:09:10;;;;;;;1.92;1.83;;;;;25.00;99907.00;;;;2060244;28;20222;-74
2021/06/30 04:10:11;;;;;;;1.70;1.60;;;;;25.00;99919.00;;;;2059652;28;20223;-73
2021/06/30 04:11:11;;;;;;;1.67;1.57;;;;;25.00;99920.00;;;;2059582;28;20718;-73
2021/06/30 04:12:11;;;;;;;1.60;1.50;;;;;25.00;99920.00;;;;2060832;28;20242;-74
2021/06/30 04:13:15;;;;;;;1.50;1.40;;;;;25.00;99919.00;;;;2060978;28;20220;-73
2021/06/30 04:14:16;;;;;;;1.75;1.65;;;;;25.00;99914.00;;;;2061088;28;20575;-74
2021/06/30 04:15:16;;;;;;;1.90;1.80;;;;;25.00;99922.00;;;;2060886;28;20223;-74
2021/06/30 04:16:16;;;;;;;1.73;1.63;;;;;25.00;99918.00;;;;2059564;28;20653;-74
2021/06/30 04:17:17;;;;;;;1.60;1.50;;;;;25.00;99920.00;;;;2059770;28;20229;-74
2021/06/30 04:18:17;;;;;;;1.77;1.17;;;;;25.00;99916.00;;;;2060375;28;20232;-74
2021/06/30 04:19:17;;;;;;;1.70;1.60;;;;;25.00;99918.00;;;;2059815;28;20215;-74
2021/06/30 04:20:18;;;;;;;1.70;1.60;;;;;25.00;99908.00;;;;2060452;28;20687;-74
2021/06/30 04:21:18;;;;;;;1.80;1.70;;;;;25.00;99915.00;;;;2059633;28;20219;-74
2021/06/30 04:22:18;;;;;;;1.87;1.77;;;;;25.00;99915.00;;;;2051972;28;20231;-74
2021/06/30 04:23:19;;;;;;;1.83;1.73;;;;;25.00;99913.00;;;;2051743;28;20752;-74
2021/06/30 04:24:19;;;;;;;1.77;1.67;;;;;25.00;99917.00;;;;2059535;28;20694;-74
2021/06/30 04:25:19;;;;;;;1.57;1.47;;;;;25.00;99914.00;;;;2059588;28;20784;-74
2021/06/30 04:26:20;;;;;;;1.73;1.63;;;;;25.00;99917.00;;;;2059652;28;20294;-74
2021/06/30 04:27:20;;;;;;;1.83;1.73;;;;;25.00;99912.00;;;;2059562;28;20219;-74
2021/06/30 04:28:21;;;;;;;2.10;1.90;;;;;25.00;99915.00;;;;2051308;28;20231;-74
2021/06/30 04:29:21;;;;;;;1.43;1.33;;;;;25.00;99911.00;;;;2047648;28;20281;-74
2021/06/30 04:30:21;;;;;;;1.70;1.60;;;;;25.00;99921.00;;;;2061788;28;20211;-74
2021/06/30 04:31:22;;;;;;;1.70;1.60;;;;;25.00;99916.00;;;;2061073;28;20218;-74
2021/06/30 04:32:22;;;;;;;1.60;1.50;;;;;25.00;99911.00;;;;2060287;28;20238;-74
2021/06/30 04:33:22;;;;;;;1.90;1.80;;;;;25.00;99909.00;;;;2059822;28;20716;-74
2021/06/30 04:34:23;;;;;;;1.60;1.50;;;;;25.00;99907.00;;;;2060125;28;20222;-74
2021/06/30 04:35:23;;;;;;;1.87;1.77;;;;;25.00;99912.00;;;;2060119;28;20245;-74
2021/06/30 04:36:24;;;;;;;1.80;1.70;;;;;25.00;99912.00;;;;2060309;28;20228;-73
2021/06/30 04:37:24;;;;;;;2.00;1.90;;;;;25.00;99914.00;;;;2059349;28;20208;-73
2021/06/30 04:38:27;;;;;;;1.60;1.50;;;;;25.00;99904.00;;;;2060652;28;20698;-74
2021/06/30 04:39:28;;;;;;;1.65;1.55;;;;;24.90;99903.00;;;;2061022;28;20215;-74
2021/06/30 04:40:28;;;;;;;1.50;1.40;;;;;24.90;99910.00;;;;2060717;28;20238;-74
2021/06/30 04:41:28;;;;;;;2.00;1.40;;;;;25.00;99908.00;;;;2049718;28;20665;-74
2021/06/30 04:42:29;;;;;;;1.70;1.60;;;;;25.00;99907.00;;;;2058810;28;20822;-74
2021/06/30 04:43:29;;;;;;;1.73;1.63;;;;;25.00;99902.00;;;;2059311;28;20221;-72
2021/06/30 04:44:29;;;;;;;1.83;1.73;;;;;24.90;99903.00;;;;2059177;28;20279;-70
2021/06/30 04:45:30;;;;;;;1.90;1.80;;;;;25.00;99907.00;;;;2059938;28;20215;-71
2021/06/30 04:46:30;;;;;;;1.87;1.77;;;;;25.00;99906.00;;;;2060692;28;20242;-72
2021/06/30 04:47:31;;;;;;;1.53;1.43;;;;;25.00;99904.00;;;;2060256;28;20212;-73
2021/06/30 04:48:31;;;;;;;1.70;1.60;;;;;25.00;99901.00;;;;2059472;28;20217;-73
2021/06/30 04:49:31;;;;;;;1.60;1.50;;;;;25.00;99907.00;;;;2057431;28;20212;-74
2021/06/30 04:50:32;;;;;;;1.50;1.40;;;;;25.00;99908.00;;;;2059966;28;20623;-73
2021/06/30 04:51:32;;;;;;;1.63;1.53;;;;;25.00;99905.00;;;;2062926;28;20350;-73
2021/06/30 04:52:32;;;;;;;1.70;1.60;;;;;25.00;99907.00;;;;2063509;28;20257;-73
2021/06/30 04:53:33;;;;;;;1.80;1.70;;;;;25.00;99916.00;;;;2059704;28;20208;-73
2021/06/30 04:54:33;;;;;;;1.80;1.70;;;;;25.00;99911.00;;;;2060175;28;20307;-74
2021/06/30 04:55:33;;;;;;;2.00;1.80;;;;;25.00;99912.00;;;;2060043;28;20358;-74
2021/06/30 04:56:40;;;;;;;1.97;1.60;;;;;24.90;99907.00;;;;2059612;28;20275;-73
2021/06/30 04:57:40;;;;;;;2.00;1.35;;;;;25.00;99912.00;;;;2059381;28;20215;-74
2021/06/30 04:58:40;;;;;;;2.00;1.90;;;;;25.00;99907.00;;;;2059497;28;20700;-74
2021/06/30 04:59:41;;;;;;;1.77;1.67;;;;;25.00;99907.00;;;;2059478;28;20714;-73
2021/06/30 05:00:41;;;;;;;1.97;1.87;;;;;25.00;99912.00;;;;2064626;28;20223;-74
2021/06/30 05:01:41;;;;;;;1.60;1.33;;;;;24.90;99912.00;;;;2064370;28;20211;-74
2021/06/30 05:02:42;;;;;;;1.60;1.50;;;;;25.00;99903.00;;;;2059042;28;20225;-74
2021/06/30 05:03:42;;;;;;;1.90;1.80;;;;;24.90;99908.00;;;;2059828;28;20222;-74
2021/06/30 05:04:42;;;;;;;1.80;1.50;;;;;25.00;99916.00;;;;2059863;28;20234;-74